Time;durP1;ratioP1;P1;durP2;ratioP2;P2;SDS_P1;SDS_P2;PMS_P1;PMS_P2;Temp;Humidity;BMP_temperature;BMP_pressure;BME280_temperature;BME280_humidity;BME280_pressure;Samples;Min_cycle;Max_cycle;Signal;HPM_P1;HPM_P2
2022/08/13 00:04:35;;;;;;;5.05;2.72;;;;;;;28.04;28.39;101773.59;5031511;28;20096;-67
2022/08/13 00:07:07;;;;;;;9.20;2.25;;;;;;;28.03;28.00;101777.50;5006955;28;20431;-67
2022/08/13 00:09:34;;;;;;;11.57;2.70;;;;;;;28.06;28.61;101779.63;5003511;28;20074;-67
2022/08/13 00:14:46;;;;;;;4.85;2.60;;;;;;;27.86;29.31;101777.41;5027015;28;20048;-67
2022/08/13 00:17:15;;;;;;;6.43;2.50;;;;;;;27.74;28.97;101772.47;5017624;28;20061;-67
2022/08/13 00:19:44;;;;;;;10.73;2.92;;;;;;;27.77;28.92;101779.31;5014340;28;20045;-67
2022/08/13 00:22:12;;;;;;;7.33;2.33;;;;;;;27.70;29.69;101777.00;4994426;28;20046;-69
2022/08/13 00:24:38;;;;;;;6.60;2.40;;;;;;;27.55;29.44;101765.53;5006917;28;20032;-70
2022/08/13 00:27:22;;;;;;;8.85;3.25;;;;;;;27.53;29.47;101771.38;5013861;28;20374;-70
2022/08/13 00:29:49;;;;;;;6.15;2.53;;;;;;;27.46;29.53;101776.53;5013885;28;20034;-71
2022/08/13 00:32:21;;;;;;;5.80;2.50;;;;;;;27.37;30.08;101774.84;4996097;28;20046;-70
2022/08/13 00:34:49;;;;;;;7.07;2.78;;;;;;;27.41;29.96;101770.31;5014186;28;20029;-70
2022/08/13 00:37:14;;;;;;;5.93;2.60;;;;;;;27.34;29.77;101773.50;5014241;28;20037;-69
2022/08/13 00:39:40;;;;;;;4.05;2.92;;;;;;;27.33;30.38;101771.91;5014499;28;20466;-70
2022/08/13 00:42:05;;;;;;;8.25;3.10;;;;;;;27.33;29.98;101765.56;5013597;28;20037;-70
2022/08/13 00:44:31;;;;;;;4.68;3.00;;;;;;;27.25;30.02;101763.50;5013709;28;20457;-71
2022/08/13 00:49:41;;;;;;;7.05;2.60;;;;;;;27.18;30.72;101779.72;5007901;28;20033;-70
2022/08/13 00:52:10;;;;;;;4.22;2.95;;;;;;;27.12;30.76;101765.22;4994242;28;20045;-70
2022/08/13 00:54:36;;;;;;;3.33;2.28;;;;;;;27.03;30.93;101778.13;4994352;28;20028;-70
2022/08/13 00:57:07;;;;;;;9.90;2.83;;;;;;;27.07;30.80;101773.63;4993742;28;20038;-72
2022/08/13 00:59:34;;;;;;;6.38;3.47;;;;;;;27.02;31.17;101772.94;4994395;28;20113;-70
2022/08/13 01:02:01;;;;;;;4.13;2.65;;;;;;;27.03;30.79;101771.81;4994257;28;20042;-69
2022/08/13 01:04:28;;;;;;;6.78;2.70;;;;;;;26.85;31.35;101768.91;4993922;28;20426;-70
2022/08/13 01:06:57;;;;;;;7.78;2.72;;;;;;;26.93;30.97;101772.84;4994160;28;20037;-70
2022/08/13 01:09:29;;;;;;;3.57;2.50;;;;;;;26.72;31.31;101767.00;4994041;28;20585;-71
2022/08/13 01:11:57;;;;;;;10.85;2.67;;;;;;;26.86;31.17;101778.00;4993278;28;20825;-70
2022/08/13 01:14:27;;;;;;;3.47;2.42;;;;;;;26.75;31.51;101774.63;4993659;28;20030;-70
2022/08/13 01:16:53;;;;;;;8.40;2.50;;;;;;;26.82;31.27;101774.22;4993727;28;20030;-70
2022/08/13 01:19:20;;;;;;;4.88;2.50;;;;;;;26.78;31.79;101759.41;4993897;28;20026;-71
2022/08/13 01:21:50;;;;;;;3.70;2.45;;;;;;;26.73;31.55;101763.09;5010608;28;20509;-71
2022/08/13 01:24:16;;;;;;;7.25;2.58;;;;;;;26.67;31.75;101764.31;5013313;28;20402;-71
2022/08/13 01:26:41;;;;;;;10.23;2.80;;;;;;;26.64;31.71;101766.88;5013309;28;20030;-70
2022/08/13 01:29:09;;;;;;;3.25;2.15;;;;;;;26.56;31.93;101765.69;5013456;28;20038;-71
2022/08/13 01:31:35;;;;;;;10.48;3.25;;;;;;;26.57;31.85;101775.59;5012448;28;20478;-68
2022/08/13 01:34:03;;;;;;;5.60;2.20;;;;;;;26.41;32.43;101773.47;5013017;28;20026;-68
2022/08/13 01:36:30;;;;;;;4.47;2.67;;;;;;;26.41;32.43;101777.03;5012562;28;20577;-66
2022/08/13 01:39:05;;;;;;;4.53;2.88;;;;;;;26.37;32.73;101776.03;5012492;28;20038;-66
2022/08/13 01:41:32;;;;;;;6.00;2.65;;;;;;;26.38;32.57;101772.13;5012579;28;20034;-67
2022/08/13 01:44:04;;;;;;;3.55;2.53;;;;;;;26.37;32.41;101777.97;5012333;28;20029;-66
2022/08/13 01:50:29;;;;;;;5.05;2.40;;;;;;;26.30;32.72;101780.31;5011976;28;20505;-68
2022/08/13 01:52:10;;;;;;;8.70;2.40;;;;;;;26.19;33.80;101774.19;5012389;28;20535;-67
2022/08/13 01:54:37;;;;;;;5.68;2.63;;;;;;;26.01;34.30;101777.84;5012704;28;20034;-67
2022/08/13 01:57:06;;;;;;;7.82;2.50;;;;;;;26.10;33.93;101776.06;5011966;28;20045;-66
2022/08/13 01:59:34;;;;;;;3.17;2.28;;;;;;;26.07;33.89;101782.97;5012158;28;20038;-66
2022/08/13 02:02:02;;;;;;;5.45;2.28;;;;;;;26.07;33.97;101787.66;5012281;28;20034;-67
2022/08/13 02:04:29;;;;;;;7.70;2.63;;;;;;;26.00;33.98;101787.25;5012366;28;20046;-67
2022/08/13 02:06:54;;;;;;;2.85;2.20;;;;;;;25.99;34.18;101777.31;5012454;28;20045;-65
2022/08/13 02:09:23;;;;;;;7.85;2.50;;;;;;;25.94;34.11;101782.94;5012139;28;20038;-67
2022/08/13 02:11:49;;;;;;;2.42;2.20;;;;;;;26.08;33.84;101776.34;5011723;28;20226;-66
2022/08/13 02:14:15;;;;;;;4.15;1.90;;;;;;;26.01;33.91;101775.91;5012046;28;20069;-67
2022/08/13 02:16:41;;;;;;;7.60;2.20;;;;;;;25.89;34.28;101777.50;5011982;28;20037;-67
2022/08/13 02:19:07;;;;;;;5.90;2.75;;;;;;;25.84;34.44;101772.94;5012583;28;20073;-67
2022/08/13 02:21:37;;;;;;;4.32;2.28;;;;;;;25.85;34.22;101768.22;5012048;28;20522;-68
2022/08/13 02:24:08;;;;;;;7.40;2.28;;;;;;;25.88;34.25;101771.22;5011759;28;20187;-67
2022/08/13 02:26:35;;;;;;;6.45;2.78;;;;;;;25.76;34.53;101770.88;5011861;28;20038;-67
2022/08/13 02:29:04;;;;;;;3.67;2.38;;;;;;;25.69;34.66;101769.66;5011704;28;20034;-67
2022/08/13 02:31:29;;;;;;;9.77;3.05;;;;;;;25.62;34.98;101783.00;5011829;28;20040;-67
2022/08/13 02:33:58;;;;;;;4.13;2.30;;;;;;;25.62;34.86;101778.31;5012334;28;20034;-69
2022/08/13 02:36:25;;;;;;;4.05;2.60;;;;;;;25.65;35.19;101774.94;5011972;28;20044;-68
2022/08/13 02:39:00;;;;;;;2.42;2.20;;;;;;;25.49;36.23;101781.84;5011838;28;20118;-65
2022/08/13 02:41:39;;;;;;;3.85;2.50;;;;;;;25.51;36.10;101784.31;5011807;28;20046;-70
2022/08/13 02:44:14;;;;;;;4.32;2.60;;;;;;;25.56;36.07;101781.44;4994834;28;20095;-70
2022/08/13 02:46:48;;;;;;;3.88;2.58;;;;;;;25.42;36.55;101778.66;4996596;28;20065;-71
2022/08/13 02:49:13;;;;;;;3.58;2.45;;;;;;;25.48;36.47;101782.97;4978770;28;20113;-70
2022/08/13 02:51:39;;;;;;;4.75;2.55;;;;;;;25.56;36.33;101779.50;4996622;28;20046;-70
2022/08/13 02:54:06;;;;;;;4.50;2.20;;;;;;;25.42;36.81;101778.66;4996238;28;20038;-70
2022/08/13 02:56:33;;;;;;;4.43;2.63;;;;;;;25.37;36.55;101783.41;4996108;28;20118;-71
2022/08/13 02:58:58;;;;;;;5.20;2.80;;;;;;;25.39;36.50;101779.25;4996308;28;20117;-71
2022/08/13 03:01:25;;;;;;;4.85;2.97;;;;;;;25.46;36.55;101778.88;4996429;28;20061;-71
2022/08/13 03:03:52;;;;;;;4.18;2.55;;;;;;;25.27;36.70;101779.72;4996635;28;20026;-70
2022/08/13 03:06:19;;;;;;;3.97;2.67;;;;;;;25.20;36.72;101786.69;4996055;28;20049;-70
2022/08/13 03:08:50;;;;;;;3.03;2.38;;;;;;;25.34;36.16;101779.31;4996156;28;20382;-70
2022/08/13 03:11:16;;;;;;;5.65;2.63;;;;;;;25.25;35.94;101789.38;4995925;28;20471;-69
2022/08/13 03:13:47;;;;;;;2.70;2.20;;;;;;;25.32;35.98;101778.00;4996119;28;20113;-70
2022/08/13 03:16:18;;;;;;;3.70;2.42;;;;;;;25.31;35.80;101779.09;4996266;28;20022;-71
2022/08/13 03:18:46;;;;;;;4.13;2.38;;;;;;;25.14;36.15;101779.63;4996626;28;20041;-70
2022/08/13 03:21:15;;;;;;;5.03;2.67;;;;;;;25.19;36.02;101798.84;4995716;28;20113;-69
2022/08/13 03:23:43;;;;;;;4.73;2.50;;;;;;;25.16;36.14;101780.97;4995982;28;20042;-70
2022/08/13 03:26:09;;;;;;;5.70;3.05;;;;;;;25.09;36.64;101786.06;4995832;28;20436;-70
2022/08/13 03:28:54;;;;;;;5.57;3.70;;;;;;;25.16;36.32;101786.47;4978424;28;20066;-70
2022/08/13 03:31:21;;;;;;;6.55;3.10;;;;;;;25.14;36.42;101793.38;4995770;28;20034;-70
2022/08/13 03:33:46;;;;;;;8.95;2.65;;;;;;;25.03;36.78;101789.19;4996317;28;20030;-70
2022/08/13 03:36:13;;;;;;;5.22;2.83;;;;;;;25.09;36.61;101791.56;5013277;28;20030;-71
2022/08/13 03:38:39;;;;;;;4.43;2.47;;;;;;;25.01;36.87;101794.16;5014755;28;20045;-70
2022/08/13 03:41:11;;;;;;;4.00;2.53;;;;;;;24.96;37.03;101792.28;5015029;28;20038;-70
2022/08/13 03:43:40;;;;;;;4.03;2.80;;;;;;;24.99;36.79;101796.38;5015177;28;20482;-70
2022/08/13 03:46:08;;;;;;;3.60;2.58;;;;;;;24.89;37.05;101789.09;5015363;28;20116;-69
2022/08/13 03:48:34;;;;;;;3.53;2.17;;;;;;;24.94;37.12;101785.47;5015166;28;20132;-69
2022/08/13 03:51:00;;;;;;;3.67;2.33;;;;;;;24.91;36.52;101786.06;5014805;28;20091;-69
2022/08/13 03:53:28;;;;;;;4.38;2.38;;;;;;;24.85;36.81;101784.50;5015115;28;20045;-71
2022/08/13 03:55:58;;;;;;;3.70;2.28;;;;;;;24.86;36.42;101784.22;5014227;28;20083;-70
2022/08/13 03:58:25;;;;;;;3.90;2.40;;;;;;;24.76;36.76;101792.63;5014486;28;20034;-69
2022/08/13 04:00:50;;;;;;;8.52;2.58;;;;;;;24.75;36.84;101793.72;5014543;28;20026;-70
2022/08/13 04:03:35;;;;;;;3.35;1.95;;;;;;;24.75;36.57;101788.22;5014150;28;20030;-71
2022/08/13 04:06:09;;;;;;;3.92;2.13;;;;;;;24.69;36.96;101788.53;5013898;28;20072;-70
2022/08/13 04:08:37;;;;;;;7.03;2.60;;;;;;;24.67;36.67;101786.09;5000412;28;20041;-71
2022/08/13 04:11:08;;;;;;;6.00;3.05;;;;;;;24.58;37.10;101785.13;5014027;28;20078;-70
2022/08/13 04:13:36;;;;;;;7.95;2.83;;;;;;;24.56;37.03;101783.78;5007214;28;20068;-70
2022/08/13 04:16:23;;;;;;;5.43;2.92;;;;;;;24.56;37.04;101783.78;5008227;28;20050;-70
2022/08/13 04:18:50;;;;;;;4.18;3.10;;;;;;;24.66;36.54;101778.97;5014430;28;20498;-70
2022/08/13 04:21:18;;;;;;;9.25;3.15;;;;;;;24.61;37.09;101784.53;5014003;28;20077;-70
2022/08/13 04:23:46;;;;;;;10.10;3.00;;;;;;;24.64;36.92;101781.19;5014334;28;20038;-71
2022/08/13 04:26:16;;;;;;;7.25;2.47;;;;;;;24.54;36.98;101777.75;5013961;28;20042;-71
2022/08/13 04:29:37;;;;;;;8.50;3.03;;;;;;;24.44;37.09;101778.72;5013941;28;20084;-70
2022/08/13 04:32:03;;;;;;;8.30;3.17;;;;;;;24.53;37.00;101784.38;5013809;28;20054;-70
2022/08/13 04:34:29;;;;;;;4.38;3.08;;;;;;;24.55;36.88;101782.16;5013911;28;20598;-69
2022/08/13 04:36:56;;;;;;;6.30;2.85;;;;;;;24.36;37.38;101782.13;5014431;28;20117;-71
2022/08/13 04:39:24;;;;;;;4.70;2.85;;;;;;;24.43;37.27;101777.91;5013967;28;20038;-71
2022/08/13 04:41:49;;;;;;;4.20;2.90;;;;;;;24.52;36.92;101779.97;5014021;28;20069;-71
2022/08/13 04:44:15;;;;;;;6.75;2.92;;;;;;;24.34;37.84;101787.09;5013686;28;20109;-69
2022/08/13 04:46:40;;;;;;;6.03;3.00;;;;;;;24.30;37.70;101778.63;5013866;28;20498;-69
2022/08/13 04:49:06;;;;;;;12.77;3.55;;;;;;;24.39;37.60;101787.03;5014188;28;20041;-70
2022/08/13 04:51:35;;;;;;;7.15;2.70;;;;;;;24.30;37.91;101783.28;5016659;28;20042;-68
2022/08/13 04:54:02;;;;;;;5.13;2.63;;;;;;;24.29;37.63;101789.91;5033169;28;20048;-69
2022/08/13 04:56:28;;;;;;;4.55;3.03;;;;;;;24.43;37.52;101777.09;5033398;28;20049;-70
2022/08/13 04:58:53;;;;;;;7.65;3.15;;;;;;;24.37;37.71;101786.50;5033422;28;20053;-70
2022/08/13 05:01:21;;;;;;;4.68;2.97;;;;;;;24.48;37.16;101787.19;5033390;28;20025;-69
2022/08/13 05:03:46;;;;;;;4.68;2.88;;;;;;;24.43;37.77;101783.38;5033837;28;20030;-70
2022/08/13 05:06:12;;;;;;;7.72;3.05;;;;;;;24.41;37.61;101788.34;5032877;28;20159;-70
2022/08/13 05:08:41;;;;;;;9.77;3.78;;;;;;;24.47;37.56;101789.09;5032799;28;20099;-70
2022/08/13 05:11:07;;;;;;;5.03;2.75;;;;;;;24.51;37.54;101792.09;5033164;28;20565;-70
2022/08/13 05:13:36;;;;;;;7.35;3.03;;;;;;;24.43;37.85;101797.13;5032703;28;20029;-67
2022/08/13 05:16:06;;;;;;;4.40;3.10;;;;;;;24.49;37.82;101800.63;5023954;28;20080;-70
2022/08/13 05:18:35;;;;;;;4.22;2.88;;;;;;;24.66;37.55;101800.13;5013014;28;20034;-67
2022/08/13 05:21:05;;;;;;;7.32;3.67;;;;;;;24.68;37.54;101792.41;5012826;28;20060;-66
2022/08/13 05:23:35;;;;;;;3.92;3.50;;;;;;;24.64;37.51;101799.63;5012886;28;20045;-67
2022/08/13 05:26:03;;;;;;;6.15;2.97;;;;;;;24.57;38.12;101797.22;5012700;28;20088;-68
2022/08/13 05:28:29;;;;;;;7.22;2.80;;;;;;;24.61;38.19;101797.47;5012572;28;20045;-66
2022/08/13 05:30:54;;;;;;;4.15;2.70;;;;;;;24.71;37.85;101800.06;4994432;28;20426;-66
2022/08/13 05:33:22;;;;;;;8.50;2.88;;;;;;;24.79;37.85;101800.25;5012730;28;20046;-68
2022/08/13 05:35:51;;;;;;;4.20;2.67;;;;;;;24.78;37.82;101800.56;5012641;28;20130;-68
2022/08/13 05:38:21;;;;;;;6.80;3.15;;;;;;;24.83;37.48;101795.78;5012558;28;20038;-67
2022/08/13 05:40:47;;;;;;;7.78;3.30;;;;;;;24.96;37.32;101792.28;5012463;28;20030;-66
2022/08/13 05:43:16;;;;;;;3.95;2.63;;;;;;;25.00;37.32;101792.53;5012623;28;20056;-70
2022/08/13 05:45:42;;;;;;;5.43;2.78;;;;;;;25.05;37.56;101796.03;5013431;28;20030;-70
2022/08/13 05:48:08;;;;;;;5.13;3.15;;;;;;;25.07;37.63;101801.22;5012864;28;20041;-70
2022/08/13 05:50:34;;;;;;;4.25;2.63;;;;;;;25.01;37.75;101794.97;5012449;28;20052;-70
2022/08/13 05:53:05;;;;;;;15.35;3.05;;;;;;;25.16;37.62;101794.75;5012640;28;20095;-71
2022/08/13 05:55:32;;;;;;;4.05;2.53;;;;;;;25.24;37.69;101787.72;5012720;28;20429;-70
2022/08/13 05:57:57;;;;;;;10.13;3.03;;;;;;;25.35;37.27;101788.38;5012826;28;20061;-71
2022/08/13 06:05:58;;;;;;;3.33;2.13;;;;;;;25.79;35.19;101785.97;5011907;28;20168;-70
2022/08/13 06:08:38;;;;;;;2.70;1.83;;;;;;;25.91;35.48;101781.59;5011862;28;20073;-71
2022/08/13 06:11:11;;;;;;;7.63;2.80;;;;;;;25.92;35.29;101783.25;5011836;28;20497;-69
2022/08/13 06:13:38;;;;;;;7.60;1.77;;;;;;;25.86;35.73;101787.22;5011946;28;20466;-70
2022/08/13 06:16:08;;;;;;;3.05;1.85;;;;;;;26.03;34.46;101787.44;5012555;28;20037;-70
2022/08/13 06:18:36;;;;;;;3.80;1.73;;;;;;;26.08;34.55;101789.31;5011794;28;20038;-69
2022/08/13 06:21:05;;;;;;;1.92;1.30;;;;;;;26.33;33.69;101787.97;4993416;28;20447;-70
2022/08/13 06:23:33;;;;;;;5.47;1.73;;;;;;;26.43;32.89;101788.59;5011796;28;20034;-70
2022/08/13 06:25:59;;;;;;;5.35;1.77;;;;;;;26.50;32.98;101788.16;5012256;28;20029;-69
2022/08/13 06:28:28;;;;;;;5.30;1.73;;;;;;;26.59;32.62;101794.59;5012271;28;20048;-68
2022/08/13 06:30:58;;;;;;;3.33;1.52;;;;;;;26.67;32.71;101789.13;5012718;28;20038;-67
2022/08/13 06:33:25;;;;;;;8.32;2.00;;;;;;;26.71;33.40;101781.91;5032206;28;20402;-68
2022/08/13 06:35:58;;;;;;;2.28;1.20;;;;;;;26.83;32.44;101798.72;5032194;28;20056;-66
2022/08/13 06:38:32;;;;;;;5.55;1.40;;;;;;;26.91;32.64;101789.72;5013990;28;20069;-68
2022/08/13 06:41:00;;;;;;;2.75;1.50;;;;;;;27.05;31.89;101791.59;5031616;28;20072;-67
2022/08/13 06:43:56;;;;;;;4.70;1.55;;;;;;;27.15;32.52;101797.72;5031356;28;20037;-67
2022/08/13 06:46:24;;;;;;;2.90;1.40;;;;;;;27.22;32.21;101791.75;5031440;28;20035;-66
2022/08/13 06:48:50;;;;;;;2.97;1.40;;;;;;;27.18;32.19;101790.75;5013790;28;20060;-66
2022/08/13 06:51:16;;;;;;;1.50;1.20;;;;;;;27.35;31.81;101786.22;5031398;28;20045;-67
2022/08/13 06:53:44;;;;;;;12.38;1.60;;;;;;;27.38;32.38;101801.34;5031262;28;20033;-67
2022/08/13 06:56:17;;;;;;;2.28;1.55;;;;;;;27.56;31.80;101790.06;5031432;28;20553;-67
2022/08/13 06:58:44;;;;;;;9.20;1.73;;;;;;;27.61;32.20;101798.25;5027476;28;20540;-66
2022/08/13 07:01:10;;;;;;;8.43;1.67;;;;;;;27.47;32.44;101799.44;5008437;28;20072;-65
2022/08/13 07:03:40;;;;;;;5.38;1.55;;;;;;;27.80;31.38;101811.81;5011080;28;20479;-65
2022/08/13 07:06:14;;;;;;;2.40;1.70;;;;;;;27.93;31.53;101810.09;5020744;28;20037;-65
2022/08/13 07:08:39;;;;;;;2.40;2.08;;;;;;;28.07;31.21;101810.84;5018742;28;20083;-65
2022/08/13 07:11:23;;;;;;;2.08;1.40;;;;;;;28.10;31.55;101810.19;5015679;28;20124;-65
2022/08/13 07:14:01;;;;;;;4.38;1.52;;;;;;;28.12;31.52;101811.53;5015740;28;20069;-66
2022/08/13 07:16:30;;;;;;;7.20;1.70;;;;;;;28.20;31.30;101813.50;4995116;28;20137;-66
2022/08/13 07:18:57;;;;;;;6.45;1.75;;;;;;;28.29;31.07;101813.50;5019536;28;20056;-67
2022/08/13 07:21:24;;;;;;;4.55;1.40;;;;;;;28.40;31.49;101812.09;5010875;28;20061;-66
2022/08/13 07:23:51;;;;;;;2.55;1.45;;;;;;;28.45;31.43;101809.19;5001201;28;20050;-66
2022/08/13 07:26:18;;;;;;;5.25;1.40;;;;;;;28.50;31.65;101817.34;4997773;28;20528;-67
2022/08/13 07:28:45;;;;;;;1.20;1.10;;;;;;;28.72;31.22;101805.38;4994086;28;20031;-66
2022/08/13 07:31:12;;;;;;;3.20;1.20;;;;;;;28.66;31.02;101809.44;4993105;28;20069;-67
2022/08/13 07:33:44;;;;;;;1.65;1.17;;;;;;;28.91;30.51;101806.69;5013651;28;20026;-65
2022/08/13 07:36:14;;;;;;;7.25;1.38;;;;;;;29.03;30.34;101806.84;4997703;28;20328;-65
2022/08/13 07:38:41;;;;;;;5.78;1.15;;;;;;;29.10;30.18;101809.94;5014772;28;20057;-66
2022/08/13 07:41:10;;;;;;;2.72;1.25;;;;;;;29.17;30.08;101803.97;5014670;28;20026;-67
2022/08/13 07:43:39;;;;;;;12.77;1.50;;;;;;;29.24;29.85;101810.63;5014646;28;20037;-66
2022/08/13 07:46:12;;;;;;;2.10;1.40;;;;;;;29.33;29.36;101807.81;5014855;28;20026;-66
2022/08/13 07:48:41;;;;;;;10.32;1.55;;;;;;;29.58;29.72;101817.25;5014681;28;20041;-66
2022/08/13 07:51:18;;;;;;;3.25;1.30;;;;;;;29.60;29.21;101809.44;5010052;28;20505;-66
2022/08/13 07:53:44;;;;;;;4.65;1.63;;;;;;;29.72;29.23;101807.63;4994218;28;20122;-67
2022/08/13 07:56:09;;;;;;;3.63;1.55;;;;;;;29.68;29.09;101800.28;4999614;28;20042;-67
2022/08/13 07:58:36;;;;;;;3.65;1.08;;;;;;;29.75;29.41;101804.19;4999538;28;20046;-66
2022/08/13 08:01:04;;;;;;;3.38;1.10;;;;;;;29.91;29.28;101810.00;5003466;28;20097;-66
2022/08/13 08:03:41;;;;;;;6.90;1.63;;;;;;;30.16;29.04;101809.09;5004406;28;20044;-67
2022/08/13 08:06:09;;;;;;;2.35;1.15;;;;;;;30.23;28.58;101806.63;4999903;28;20150;-66
2022/08/13 08:08:35;;;;;;;2.65;1.52;;;;;;;30.38;28.79;101810.81;5004604;28;20032;-67
2022/08/13 08:11:02;;;;;;;2.00;1.40;;;;;;;30.49;28.10;101801.75;5002253;28;20038;-66
2022/08/13 08:13:32;;;;;;;6.63;1.58;;;;;;;29.99;28.80;101801.69;5004259;28;20050;-66
2022/08/13 08:15:58;;;;;;;;;;;;;;;30.64;28.19;101801.19;5005276;28;20025;-67
2022/08/13 08:18:24;;;;;;;5.43;1.27;;;;;;;31.05;27.74;101804.00;5004421;28;20000;-66
2022/08/13 08:21:04;;;;;;;4.00;1.98;;;;;;;30.99;27.68;101804.53;5015585;28;20057;-69
2022/08/13 08:23:33;;;;;;;2.95;1.02;;;;;;;30.95;27.90;101796.09;5028302;28;20053;-66
2022/08/13 08:26:01;;;;;;;3.38;1.40;;;;;;;30.93;27.44;101798.38;5027686;28;20045;-70
2022/08/13 08:28:30;;;;;;;6.40;1.27;;;;;;;31.17;27.33;101797.69;5025660;28;20042;-67
2022/08/13 08:30:56;;;;;;;2.00;1.02;;;;;;;31.43;26.92;101797.47;5020966;28;20025;-66
2022/08/13 08:33:28;;;;;;;3.40;1.25;;;;;;;31.56;26.70;101799.13;5016845;28;20038;-68
2022/08/13 08:35:54;;;;;;;2.58;1.10;;;;;;;31.50;26.95;101800.50;5017550;28;20136;-67
2022/08/13 08:43:53;;;;;;;2.97;0.98;;;;;;;31.73;26.19;101801.69;5011474;28;20421;-66
2022/08/13 08:46:20;;;;;;;3.92;1.15;;;;;;;31.87;26.30;101802.19;5009551;28;20108;-69
2022/08/13 08:48:46;;;;;;;2.45;1.10;;;;;;;31.85;25.77;101816.44;5012458;28;20510;-67
2022/08/13 08:51:13;;;;;;;4.85;1.08;;;;;;;32.13;25.43;101810.25;5011804;28;20046;-69
2022/08/13 08:53:47;;;;;;;4.65;1.05;;;;;;;32.32;24.84;101816.03;5009455;28;20049;-66
2022/08/13 08:56:16;;;;;;;1.92;1.05;;;;;;;32.51;25.35;101805.97;5012119;28;20093;-67
2022/08/13 08:58:42;;;;;;;1.83;1.00;;;;;;;32.51;25.12;101811.53;5008991;28;20064;-68
2022/08/13 09:01:10;;;;;;;2.55;1.02;;;;;;;32.71;24.64;101804.19;5007607;28;20053;-65
2022/08/13 09:03:39;;;;;;;3.50;1.00;;;;;;;32.87;24.69;101805.09;5012338;28;20037;-65
2022/08/13 09:06:08;;;;;;;3.28;1.13;;;;;;;32.80;24.24;101805.72;5011791;28;20065;-68
2022/08/13 09:08:35;;;;;;;8.43;0.88;;;;;;;32.92;24.12;101802.06;5005026;28;20042;-67
2022/08/13 09:11:02;;;;;;;3.28;1.00;;;;;;;32.78;24.49;101799.69;4996332;28;20529;-66
2022/08/13 09:13:28;;;;;;;2.50;0.90;;;;;;;33.18;24.38;101799.66;5009946;28;20044;-66
2022/08/13 09:15:57;;;;;;;2.72;1.05;;;;;;;33.09;24.13;101798.19;5009627;28;20454;-67
2022/08/13 09:18:23;;;;;;;4.10;1.33;;;;;;;33.46;24.21;101792.13;5015559;28;20045;-67
2022/08/13 09:20:49;;;;;;;13.95;1.48;;;;;;;33.54;23.30;101785.59;5012101;28;20541;-66
2022/08/13 09:23:16;;;;;;;2.08;1.00;;;;;;;33.83;23.61;101787.13;5011999;28;20049;-65
2022/08/13 09:25:51;;;;;;;9.38;0.80;;;;;;;33.78;22.97;101789.38;5013507;28;20052;-66
2022/08/13 09:28:23;;;;;;;2.80;1.25;;;;;;;33.31;22.33;101790.09;5011263;28;20018;-65
2022/08/13 09:30:52;;;;;;;2.75;1.02;;;;;;;33.45;23.10;101782.16;5015631;28;20061;-66
2022/08/13 09:33:20;;;;;;;2.23;0.80;;;;;;;34.09;22.43;101781.84;5016003;28;20029;-64
2022/08/13 09:35:49;;;;;;;4.10;1.40;;;;;;;34.13;22.05;101781.94;5031328;28;20037;-67
2022/08/13 09:38:15;;;;;;;1.88;0.95;;;;;;;33.78;21.65;101776.25;5026385;28;20485;-67
2022/08/13 09:41:15;;;;;;;2.22;0.82;;;;;;;34.09;21.07;101769.88;5025936;28;20030;-66
2022/08/13 09:43:42;;;;;;;2.33;0.90;;;;;;;33.78;21.99;101772.66;4966207;28;20034;-65
2022/08/13 09:46:09;;;;;;;7.65;0.95;;;;;;;34.51;21.03;101762.56;4981517;28;20476;-67
2022/08/13 09:48:37;;;;;;;1.83;0.80;;;;;;;34.63;20.65;101775.56;4958878;28;20039;-67
2022/08/13 09:51:03;;;;;;;2.60;1.10;;;;;;;34.74;20.84;101774.63;4970121;28;20054;-67
2022/08/13 09:53:29;;;;;;;1.30;0.80;;;;;;;34.59;20.97;101774.69;4971524;28;20073;-67
2022/08/13 09:55:56;;;;;;;1.63;0.68;;;;;;;35.28;20.40;101772.56;4974608;28;20171;-68
2022/08/13 09:58:25;;;;;;;4.65;0.77;;;;;;;34.87;20.37;101781.69;4975022;28;20038;-68
2022/08/13 10:00:52;;;;;;;1.15;0.82;;;;;;;35.34;20.03;101767.50;4980274;28;20034;-66
2022/08/13 10:03:18;;;;;;;1.98;0.90;;;;;;;35.36;19.71;101767.94;4979571;28;20038;-66
2022/08/13 10:05:45;;;;;;;6.35;1.25;;;;;;;35.27;20.09;101765.38;4979514;28;20031;-66
2022/08/13 10:08:16;;;;;;;2.88;0.80;;;;;;;35.60;19.38;101764.03;4980108;28;20089;-66
2022/08/13 10:10:42;;;;;;;3.47;0.80;;;;;;;35.36;19.15;101765.16;4979623;28;20501;-67
2022/08/13 10:13:08;;;;;;;1.65;0.95;;;;;;;35.42;19.58;101760.06;4969739;28;20125;-66
2022/08/13 10:15:33;;;;;;;5.55;0.98;;;;;;;35.82;19.30;101761.22;4976886;28;20189;-66
2022/08/13 10:18:02;;;;;;;3.90;0.80;;;;;;;35.99;18.15;101768.31;4978537;28;20379;-64
2022/08/13 10:20:39;;;;;;;0.60;0.60;;;;;;;35.97;18.30;101757.47;4994404;28;20045;-66
2022/08/13 10:23:10;;;;;;;1.13;0.80;;;;;;;36.12;18.27;101752.94;5019490;28;20050;-66
2022/08/13 10:25:37;;;;;;;1.65;0.63;;;;;;;36.52;18.48;101749.56;5026711;28;20033;-65
2022/08/13 10:28:25;;;;;;;3.83;0.60;;;;;;;36.65;17.90;101742.50;5027590;28;20041;-65
2022/08/13 10:30:51;;;;;;;3.13;0.90;;;;;;;36.13;18.09;101746.94;5026285;28;20083;-67
2022/08/13 10:33:16;;;;;;;2.13;0.57;;;;;;;36.04;17.83;101749.22;5025313;28;20046;-65
2022/08/13 10:35:44;;;;;;;1.55;0.70;;;;;;;36.30;17.37;101742.81;5027609;28;20036;-65
2022/08/13 10:38:17;;;;;;;5.93;0.73;;;;;;;36.40;17.63;101741.38;5022092;28;20049;-66
2022/08/13 10:40:43;;;;;;;3.58;0.68;;;;;;;37.18;17.64;101737.56;5027268;28;20037;-66
2022/08/13 10:43:09;;;;;;;2.30;0.90;;;;;;;37.08;17.02;101744.69;5023584;28;20089;-67
2022/08/13 10:45:34;;;;;;;1.48;0.70;;;;;;;36.85;17.09;101738.38;5013032;28;20026;-64
2022/08/13 10:48:01;;;;;;;11.55;0.82;;;;;;;37.23;16.68;101729.63;5025082;28;20512;-65
2022/08/13 10:50:29;;;;;;;3.78;0.85;;;;;;;37.17;17.00;101733.94;5017678;28;20025;-69
2022/08/13 10:52:56;;;;;;;1.00;0.60;;;;;;;36.75;16.90;101736.25;5024737;28;20040;-67
2022/08/13 10:55:24;;;;;;;1.77;0.70;;;;;;;37.54;16.32;101723.56;5028621;28;20072;-66
2022/08/13 10:57:50;;;;;;;3.65;0.82;;;;;;;37.38;16.63;101719.38;5029545;28;20057;-69
2022/08/13 11:00:16;;;;;;;0.75;0.70;;;;;;;38.06;15.97;101721.56;5023280;28;20132;-68
2022/08/13 11:02:43;;;;;;;1.42;0.68;;;;;;;37.80;16.19;101726.19;5023040;28;20530;-68
2022/08/13 11:05:09;;;;;;;1.33;0.73;;;;;;;37.96;15.65;101716.72;5004684;28;20038;-65
2022/08/13 11:07:36;;;;;;;2.22;1.02;;;;;;;37.97;15.26;101709.88;5001902;28;20041;-67
2022/08/13 11:10:05;;;;;;;1.98;0.63;;;;;;;38.23;15.54;101713.28;5014694;28;20096;-67
2022/08/13 11:12:31;;;;;;;5.63;0.68;;;;;;;37.86;15.55;101715.41;5014673;28;20076;-65
2022/08/13 11:14:56;;;;;;;5.22;0.60;;;;;;;38.52;15.63;101714.25;5023326;28;20505;-66
2022/08/13 11:17:23;;;;;;;10.25;0.77;;;;;;;37.87;15.63;101707.81;5012311;28;20041;-67
2022/08/13 11:19:49;;;;;;;5.75;0.70;;;;;;;38.41;14.74;101707.78;5014304;28;20033;-68
2022/08/13 11:22:15;;;;;;;1.10;0.52;;;;;;;38.58;14.99;101715.50;5009186;28;20048;-66
2022/08/13 11:24:41;;;;;;;0.40;0.40;;;;;;;38.54;14.76;101714.66;5015073;28;20502;-65
2022/08/13 11:27:06;;;;;;;1.42;0.68;;;;;;;38.51;14.00;101713.44;5011751;28;20050;-66
2022/08/13 11:29:32;;;;;;;1.48;0.52;;;;;;;38.13;14.31;101707.59;5018444;28;20057;-64
2022/08/13 11:31:57;;;;;;;2.40;0.52;;;;;;;38.43;14.87;101699.75;5009043;28;20042;-63
2022/08/13 11:34:25;;;;;;;1.42;0.70;;;;;;;38.72;14.90;101706.34;5021030;28;20045;-68
2022/08/13 11:36:51;;;;;;;2.92;0.50;;;;;;;39.09;14.64;101698.44;5021698;28;20036;-66
2022/08/13 11:39:17;;;;;;;1.85;0.50;;;;;;;39.04;14.37;101696.00;5029668;28;20029;-65
2022/08/13 11:41:42;;;;;;;4.53;0.80;;;;;;;39.09;14.37;101701.25;5030450;28;20099;-64
2022/08/13 11:44:07;;;;;;;1.65;0.38;;;;;;;39.21;14.15;101698.88;5030633;28;20049;-66
2022/08/13 11:46:33;;;;;;;1.77;0.70;;;;;;;39.46;14.19;101699.72;5031227;28;20104;-66
2022/08/13 11:48:58;;;;;;;3.55;0.70;;;;;;;39.57;13.74;101694.09;5030127;28;20026;-66
2022/08/13 11:51:24;;;;;;;0.63;0.47;;;;;;;39.71;13.55;101688.47;5030614;28;20041;-67
2022/08/13 11:53:49;;;;;;;2.60;0.70;;;;;;;39.34;14.02;101690.84;5030559;28;20079;-65